Aérodrome :
LOGIN :

S'inscrire | Disclaimer

   EN    FR    IT 

 










Légende :    VFR   VFR Marginal   IFR   IFR Intensif   IFR Très Intensif
Visi : 
Plafond : 
>= 8 km
>= 3000ft
5 à 8 km
1000 à 3000 ft
1500m à 5 km
500 à 1000 ft
800 à 1500m
200 à 500 ft
< 800m
< 200 ft
Symboles :   Orages  Brouillard  Fortes neiges  Fortes précipitations  Vent > 20 kt
SIGMETs :   Divers  Orages  Givrage  Turbulence  Onde Orograph.  Cendres Volcan.







- Altitude de l'aérodrome : 1187 ft


LIBV - Gioia del Colle Bari

DERNIER METAR :
  • 280755Z 15010KT 5000 BR SCT004 SCT007 15/13 Q1013 RMK OVC BKN120 VIS MIN 4000W WIND THR32 17010KT WIND THR14 15010KT GRN

METARs EXPIRÉS :
  • 280655Z 16013KT 5000 BR SCT004 SCT006 15/14 Q1013 RMK OVC BKN110 VIS MIN 4000W WIND THR32 17012KT WIND THR14 16012KT GRN
  • 280555Z 16011KT 4000 BR FEW004 SCT006 15/14 Q1013 RMK OVC BKN110 VIS MIN 3000S WIND THR32 17013KT WIND THR14 17009KT YLO

TAF TAF LIBV
Valide du 28 à 06h jusqu'au 28 à 15h UTC


280500Z 2806/2815 15010KT 2000 BR BKN004
BECMG 2806/2808 5000 BR SCT018
BECMG 2808/2810 15015G25KT 8000
Pas de NOTAMs connus pour ce terrain.
1 SIGMET publié pour la FIR Brindisi (LIBB) :
 
LIBB SIGMET 2 VALID 280500/280900 LIIB- LIBB BRINDISI FIR SEV TURB FCST WI N4249 E01512 - N4202 E01359 - N4119 E01505 - N4216 E01616 - N4249 E01512 FL030/080 STNR WKN=



MET'MAP, la Météo Aéronautique d'un coup d'oeil ! - Copyright ORBIFLY Décembre 2007 - Disclaimer

ORBIFLY MET'MAP TEAM :

Programmation & Développement : Alexandra Zaïnal
Conception & Développement : Baudouin d'Aumeries
Co-Programmation & Développement : Marc-Olivier Méhu
Soutien technique & logistique : Manuel Goepfert

Contact : metmap@orbifly.com




SOURCES & CREDITS :

   NOAA